createdAt,value
2023-03-06T00:00:44.455Z,73.16
2023-03-06T00:05:47.612Z,72.81
2023-03-06T00:10:50.146Z,73.21
2023-03-06T00:15:53.046Z,72.96
2023-03-06T00:20:55.632Z,72.95
2023-03-06T00:25:58.176Z,72.94
2023-03-06T00:31:01.324Z,73.21
2023-03-06T00:36:06.075Z,74.16
2023-03-06T00:41:13.134Z,72.98
2023-03-06T00:46:15.575Z,73.51
2023-03-06T00:51:19.942Z,73.92
2023-03-06T00:56:22.539Z,73.82
2023-03-06T01:01:25.053Z,73.96
2023-03-06T01:06:28.562Z,74.16
2023-03-06T01:11:31.433Z,73.77
2023-03-06T01:16:34.122Z,74.06
2023-03-06T01:21:36.619Z,73.88
2023-03-06T01:26:39.176Z,74.18
2023-03-06T01:31:41.739Z,73.93
2023-03-06T01:36:44.396Z,73.88
2023-03-06T01:41:46.925Z,73.14
2023-03-06T01:46:49.464Z,73.20
2023-03-06T01:51:54.773Z,74.05
2023-03-06T01:57:25.533Z,73.74
2023-03-06T02:02:28.261Z,74.18
2023-03-06T02:07:31.707Z,74.24
2023-03-06T02:12:34.291Z,73.78
2023-03-06T02:17:37.425Z,73.69
2023-03-06T02:22:49.169Z,74.11
2023-03-06T02:27:52.715Z,74.20
2023-03-06T02:32:55.979Z,73.91
2023-03-06T02:38:03.158Z,74.13
2023-03-06T02:43:05.965Z,73.54
2023-03-06T02:48:09.672Z,73.80
2023-03-06T02:53:14.142Z,73.55
2023-03-06T02:58:19.900Z,74.46
2023-03-06T03:03:23.389Z,74.12
2023-03-06T03:08:28.552Z,73.74
2023-03-06T03:13:35.681Z,74.95
2023-03-06T03:18:38.641Z,73.88
2023-03-06T03:23:41.836Z,74.16
2023-03-06T05:16:17.422Z,73.16
2023-03-06T05:21:20.416Z,73.14
2023-03-06T05:26:22.975Z,72.49
2023-03-06T05:31:25.479Z,72.01
2023-03-06T05:36:28.104Z,71.18
2023-03-06T05:41:30.967Z,71.03
2023-03-06T05:46:33.427Z,70.17
2023-03-06T05:51:36.581Z,68.63
2023-03-06T05:56:40.269Z,68.80
2023-03-06T06:01:46.490Z,68.59
2023-03-06T06:06:56.283Z,67.71
2023-03-06T06:12:01.914Z,67.32
2023-03-06T06:17:04.863Z,67.79
2023-03-06T06:22:07.290Z,67.60
2023-03-06T06:27:09.745Z,66.49
2023-03-06T06:32:12.248Z,65.84
2023-03-06T06:37:14.738Z,65.91
2023-03-06T06:42:38.894Z,66.08
2023-03-06T06:47:43.703Z,65.81
2023-03-06T06:52:46.544Z,66.28
2023-03-06T06:57:48.921Z,65.52
2023-03-06T07:02:51.556Z,64.25
2023-03-06T07:07:54.040Z,63.66
2023-03-06T07:12:56.873Z,62.83
2023-03-06T07:18:01.004Z,62.57
2023-03-06T07:23:03.519Z,62.27
2023-03-06T07:28:06.281Z,62.03
2023-03-06T07:33:09.337Z,61.37
2023-03-06T07:38:12.178Z,61.09
2023-03-06T07:43:19.496Z,60.05
2023-03-06T07:48:29.609Z,60.24
2023-03-06T07:53:32.900Z,59.92
2023-03-06T07:58:41.342Z,59.71
2023-03-06T08:03:44.272Z,59.26
2023-03-06T08:08:48.408Z,59.31
2023-03-06T08:13:53.070Z,59.41
2023-03-06T08:18:56.449Z,58.70
2023-03-06T08:23:59.462Z,58.85
2023-03-06T08:29:02.791Z,58.81
2023-03-06T08:34:12.966Z,58.61
2023-03-06T08:39:15.505Z,58.28
2023-03-06T08:44:18.076Z,57.81
2023-03-06T08:49:20.733Z,58.07
2023-03-06T08:54:23.223Z,58.55
2023-03-06T08:59:25.757Z,58.33
2023-03-06T09:04:31.354Z,57.90
2023-03-06T09:09:33.872Z,58.66
2023-03-06T09:14:36.284Z,58.23
2023-03-06T09:19:38.855Z,57.67
2023-03-06T09:24:41.387Z,57.60
2023-03-06T09:29:43.882Z,57.65
2023-03-06T09:34:46.336Z,58.06
2023-03-06T09:39:50.321Z,58.36
2023-03-06T09:45:04.279Z,56.72
2023-03-06T09:50:25.354Z,55.50
2023-03-06T09:55:33.000Z,55.63
2023-03-06T10:00:58.390Z,55.90
2023-03-06T10:06:30.469Z,54.38
2023-03-06T10:11:43.832Z,54.00
2023-03-06T10:16:46.547Z,53.65
2023-03-06T10:22:04.316Z,51.80
2023-03-06T10:27:17.073Z,51.68
2023-03-06T10:32:46.097Z,52.34
2023-03-06T10:37:50.424Z,52.18
2023-03-06T10:43:09.390Z,52.59
2023-03-06T10:48:20.343Z,51.50
2023-03-06T10:53:29.442Z,50.78
2023-03-06T10:58:33.576Z,50.18
2023-03-06T11:03:37.181Z,50.05
2023-03-06T11:08:41.149Z,49.89
2023-03-06T11:13:44.751Z,49.63
2023-03-06T11:19:18.028Z,50.50
2023-03-06T11:24:22.797Z,50.04
2023-03-06T11:29:43.613Z,50.33
2023-03-06T11:35:14.140Z,50.72
2023-03-06T11:41:00.140Z,51.03
2023-03-06T11:46:37.199Z,50.96
2023-03-06T11:51:48.442Z,50.38
2023-03-06T11:57:12.990Z,49.96
2023-03-06T12:02:37.950Z,50.67
2023-03-06T12:07:48.799Z,50.40
2023-03-06T12:13:00.568Z,50.22
2023-03-06T12:18:12.253Z,50.29
2023-03-06T12:23:23.654Z,50.83
2023-03-06T12:28:47.338Z,50.78
2023-03-06T12:33:55.712Z,50.43
2023-03-06T12:39:12.966Z,50.12
2023-03-06T12:44:24.173Z,49.25
2023-03-06T12:49:32.980Z,49.52
2023-03-06T12:54:42.022Z,49.51
2023-03-06T12:59:48.876Z,49.50
2023-03-06T13:05:13.053Z,49.08
2023-03-06T13:10:34.888Z,48.89
2023-03-06T13:15:42.852Z,48.55
2023-03-06T13:20:46.370Z,48.85
2023-03-06T13:25:50.540Z,49.27
2023-03-06T13:30:53.450Z,49.15
2023-03-06T13:35:56.964Z,50.29
2023-03-06T13:41:21.147Z,49.92
2023-03-06T13:46:35.657Z,50.15
2023-03-06T13:51:41.176Z,50.31
2023-03-06T13:57:04.322Z,50.94
2023-03-06T14:02:28.592Z,50.48
2023-03-06T14:07:40.377Z,51.06
2023-03-06T14:13:13.341Z,50.99
2023-03-06T14:18:42.700Z,51.72
2023-03-06T14:23:47.451Z,51.97
2023-03-06T14:28:53.034Z,52.18
2023-03-06T14:34:01.286Z,53.94
2023-03-06T14:39:14.123Z,54.28
2023-03-06T14:44:18.368Z,54.56
2023-03-06T14:49:22.590Z,54.96
2023-03-06T14:54:29.772Z,54.21
2023-03-06T14:59:56.614Z,54.85
2023-03-06T15:05:05.732Z,55.65
2023-03-06T15:10:21.666Z,56.28
2023-03-06T15:15:30.750Z,55.13
2023-03-06T15:20:54.076Z,55.93
2023-03-06T15:26:02.361Z,55.31
2023-03-06T15:31:11.049Z,56.14
2023-03-06T15:36:27.947Z,55.68
2023-03-06T15:41:39.025Z,56.24
2023-03-06T15:46:42.354Z,56.25
2023-03-06T15:51:45.028Z,55.69
2023-03-06T15:56:49.943Z,55.62
2023-03-06T16:01:53.366Z,55.86
2023-03-06T16:06:55.982Z,56.32
2023-03-06T16:11:59.710Z,56.67
2023-03-06T16:17:02.321Z,56.41
2023-03-06T16:22:04.799Z,56.00
2023-03-06T16:27:07.385Z,55.75
2023-03-06T16:32:11.882Z,56.06
2023-03-06T16:37:14.521Z,55.88
2023-03-06T16:42:17.898Z,55.78
2023-03-06T16:47:20.390Z,55.74
2023-03-06T16:52:22.950Z,55.75
2023-03-06T16:57:25.624Z,55.47
2023-03-06T17:02:28.108Z,55.96
2023-03-06T17:07:33.325Z,56.63
2023-03-06T17:12:36.250Z,56.99
2023-03-06T17:17:39.100Z,56.65
2023-03-06T17:22:46.487Z,57.00
2023-03-06T17:27:49.148Z,57.33
2023-03-06T17:32:51.661Z,57.28
2023-03-06T17:37:59.013Z,58.05
2023-03-06T17:43:01.637Z,57.64
2023-03-06T17:48:04.345Z,58.11
2023-03-06T17:53:06.938Z,58.45
2023-03-06T17:58:12.091Z,58.62
2023-03-06T18:03:15.031Z,59.37
2023-03-06T18:08:17.489Z,59.28
2023-03-06T18:13:20.354Z,59.97
2023-03-06T18:18:23.655Z,59.50
2023-03-06T18:23:27.032Z,60.54
2023-03-06T18:28:31.020Z,60.83
2023-03-06T18:33:33.617Z,60.96
2023-03-06T18:38:36.146Z,60.40
2023-03-06T18:43:39.319Z,60.85
2023-03-06T18:48:41.841Z,60.49
2023-03-06T18:53:44.591Z,60.44
2023-03-06T18:58:48.520Z,60.75
2023-03-06T19:03:51.065Z,60.67
2023-03-06T19:08:58.931Z,60.35
2023-03-06T19:14:01.934Z,60.48
2023-03-06T19:19:04.485Z,60.56
2023-03-06T19:24:13.406Z,61.18
2023-03-06T19:29:15.924Z,60.88
2023-03-06T19:34:19.060Z,60.99
2023-03-06T19:39:21.604Z,61.86
2023-03-06T19:44:27.201Z,61.49
2023-03-06T19:49:30.432Z,62.54
2023-03-06T19:54:33.264Z,62.10
2023-03-06T19:59:36.007Z,62.11
2023-03-06T20:04:38.827Z,62.34
2023-03-06T20:09:41.409Z,62.58
2023-03-06T20:14:46.296Z,62.27
2023-03-06T20:19:48.783Z,62.26
2023-03-06T20:24:51.369Z,62.14
2023-03-06T20:29:53.968Z,61.95
2023-03-06T20:34:56.448Z,61.68
2023-03-06T20:39:59.082Z,61.53
2023-03-06T20:45:01.599Z,61.31
2023-03-06T20:50:06.433Z,61.36
2023-03-06T20:55:09.467Z,61.15
2023-03-06T21:00:12.424Z,61.22
2023-03-06T21:05:15.034Z,62.09
2023-03-06T21:10:17.703Z,62.06
2023-03-06T21:15:22.783Z,62.75
2023-03-06T21:20:25.220Z,62.96
2023-03-06T21:25:29.136Z,62.56
2023-03-06T21:30:32.890Z,62.60
2023-03-06T21:35:40.916Z,61.96
2023-03-06T21:40:44.916Z,61.68
2023-03-06T21:45:49.344Z,61.91
2023-03-06T21:50:51.991Z,61.13
2023-03-06T22:01:27.186Z,60.21
2023-03-06T22:06:32.036Z,60.68
2023-03-06T22:11:37.519Z,60.85
2023-03-06T22:16:40.129Z,61.70
2023-03-06T22:21:42.957Z,62.04
2023-03-06T22:26:45.469Z,62.08
2023-03-06T22:31:47.958Z,62.38
2023-03-06T22:36:50.748Z,62.92
2023-03-06T22:41:56.256Z,62.53
2023-03-06T22:46:58.690Z,62.93
2023-03-06T22:52:01.179Z,62.64
2023-03-06T22:57:04.602Z,62.73
2023-03-06T23:02:08.347Z,62.30
2023-03-06T23:07:10.957Z,62.62
2023-03-06T23:12:13.444Z,62.13
2023-03-06T23:17:35.036Z,62.46
2023-03-06T23:22:55.893Z,62.47
2023-03-06T23:28:16.763Z,62.13
2023-03-06T23:33:19.528Z,62.30
2023-03-06T23:38:21.913Z,62.16
2023-03-06T23:43:24.445Z,62.70
2023-03-06T23:48:29.797Z,62.24
2023-03-06T23:53:32.259Z,62.46
2023-03-06T23:58:35.566Z,62.56
